Details From EGLL - London Heathrow
To MKJP - Norman Manley Intl
Flight Number -
Tags Standard
Created
Modified
Stats Distance 4,060 nm / 7,519 km
Max Altitude 0 ft / 0 m
Waypoints 5
Social Downloads 7
Likes 0
Share VATSIM

Download

Looking for another format? Having issues loading an existing format? Contact us
Advertisement - Login to hide

Notes

None

Route

EGLL DOKEK JOTAS MLY71 MKJP

ID Type Via Altitude Latitude Longitude Leg Dist Tot Dist Heading (true) Name
O EGLL APT - 0 ft / 0 m 51.46477˚ -0.48695˚ - 0 nm - -
DOKEK FIX - 0 ft / 0 m 51.42167˚ -6.05806˚ 208 nm 208 nm 271° / 267° -
JOTAS FIX - 0 ft / 0 m 20.85056˚ -74.11306˚ 3619 nm 3827 nm 267° / 222° -
MLY71 FIX - 0 ft / 0 m 17.94091˚ -76.80520˚ 231 nm 4059 nm 222° / 221° -
O MKJP APT - 0 ft / 0 m 17.94026˚ -76.79945˚ 0 nm 4059 nm 97° / 97° -

Altitude Profile

Advertisement - Login to hide

Weather


0- 5 10 15 20 25 30 35+ Temperature / ° C

Clouds and Precipitation
Forecast for 2017-12-17 00:00 UTC. Updated 2 hours ago

Ground ~20,000 ft ~40,000 ft Winds

EGLL

Details ICAO EGLL (LHR)
Name London Heathrow
Region United Kingdom
Timezone Europe/London (UTC+0.0)
Stats Elevation 83 ft / 25 m (AMSL)
Location 51.471218° -0.460978°
Runways 2
Magnetic Variation 0.559° W

METAR

EGLL 162250Z AUTO VRB02KT 9999 NCD 03/01 Q1023 NOSIG

Decode

TAF

TAF EGLL 161652Z 1618/1724 30006KT 9999 SCT030 BECMG 1621/1624 6000 TEMPO 1700/1711 3000 BR MIFG BKN003 PROB40 1701/1710 0300 FZFG FG VV/// TEMPO 1712/1714 RA BKN006 BECMG 1714/1717 -RADZ BKN006 PROB40 TEMPO 1717/1722 3000 RADZ BKN004 BECMG 1722/1724 9999 NSW FEW030

Decode

Departure Runways

ID Width Length Bearing (true) Bearing (mag) Surface Threshold Offset Overrun Length
09L 164 ft / 50 m 12,811 ft / 3,905 m 89.64° 90.20° Asphalt 1,004 ft / 306 m 0 ft / 0 m
09R 164 ft / 50 m 12,019 ft / 3,663 m 89.67° 90.23° Asphalt 1,007 ft / 307 m 0 ft / 0 m
27L 164 ft / 50 m 12,019 ft / 3,663 m 269.71° 270.27° Asphalt 0 ft / 0 m 69 ft / 21 m
27R 164 ft / 50 m 12,811 ft / 3,905 m 269.69° 270.25° Asphalt 0 ft / 0 m 69 ft / 21 m

MKJP

Details ICAO MKJP (KIN)
Name Norman Manley Intl
Region Jamaica
Timezone Unknown (UTC+0.0)
Stats Elevation 10 ft / 3 m (AMSL)
Location 17.935665° -76.787560°
Runways 1
Magnetic Variation 7.542° W

METAR

MKJP 162300Z 26004KT 9999 FEW024 29/23 Q1014

Decode

TAF

TAF MKJP 161715Z 1618/1718 17015KT 9999 FEW022 BECMG 1701/1703 35007KT BECMG 1714/1716 15018KT

Decode

Destination Runways

ID Width Length Bearing (true) Bearing (mag) Surface Threshold Offset Overrun Length
12 150 ft / 46 m 8,912 ft / 2,717 m 112.09° 119.63° Asphalt 0 ft / 0 m 0 ft / 0 m
30 150 ft / 46 m 8,912 ft / 2,717 m 292.10° 299.64° Asphalt 0 ft / 0 m 0 ft / 0 m

Approach Navaids

Runway Type Ident Frequency Range Bearing (true) Bearing (mag) Slope Elevation
12 Localiser IMLY 109.10 MHz 18 nm / 33 km 115.09° 122.63° - 10 ft / 3 m (AMSL)
12 Glidescope IMLY 109.10 MHz 10 nm / 19 km 115.09° 122.63° 3.00° 8 ft / 2 m (AMSL)

Popular Alternatives